Time;durP1;ratioP1;P1;durP2;ratioP2;P2;SDS_P1;SDS_P2;PMS_P1;PMS_P2;Temp;Humidity;BMP_temperature;BMP_pressure;BME280_temperature;BME280_humidity;BME280_pressure;Samples;Min_cycle;Max_cycle;Signal;HPM_P1;HPM_P2
2022/11/28 00:01:45;;;;;;;9.67;8.37;;;7.40;99.90;;;;;;5028114;28;20285;-71
2022/11/28 00:04:11;;;;;;;8.15;7.30;;;7.30;99.90;;;;;;5031952;28;20216;-72
2022/11/28 00:06:39;;;;;;;8.95;7.90;;;7.10;99.90;;;;;;5031165;28;20265;-72
2022/11/28 00:09:06;;;;;;;8.68;7.82;;;7.40;99.90;;;;;;5045744;28;20639;-72
2022/11/28 00:11:32;;;;;;;10.80;7.20;;;7.20;99.90;;;;;;5030534;28;20197;-70
2022/11/28 00:13:57;;;;;;;10.93;8.60;;;7.10;99.90;;;;;;5029117;28;20198;-69
2022/11/28 00:16:23;;;;;;;8.53;7.73;;;7.30;99.90;;;;;;5027413;28;20205;-69
2022/11/28 00:18:51;;;;;;;9.35;8.38;;;7.20;99.90;;;;;;5025624;28;20584;-70
2022/11/28 00:21:17;;;;;;;8.60;7.70;;;7.20;99.90;;;;;;5034225;28;20724;-70
2022/11/28 00:23:45;;;;;;;9.02;8.00;;;7.30;99.90;;;;;;5025244;28;20211;-70
2022/11/28 00:26:15;;;;;;;10.25;7.55;;;7.30;99.90;;;;;;5030863;28;20182;-70
2022/11/28 00:28:41;;;;;;;10.07;8.20;;;7.20;99.90;;;;;;5030629;28;20313;-69
2022/11/28 00:31:21;;;;;;;9.43;7.77;;;7.30;99.90;;;;;;5030993;28;20277;-70
2022/11/28 00:33:47;;;;;;;8.18;7.38;;;7.20;99.90;;;;;;5029079;28;20967;-69
2022/11/28 00:36:13;;;;;;;8.82;7.95;;;7.30;99.90;;;;;;5047234;28;20191;-70
2022/11/28 00:38:39;;;;;;;8.27;7.38;;;7.30;99.90;;;;;;5030889;28;20563;-71
2022/11/28 00:41:12;;;;;;;8.07;7.28;;;7.00;99.90;;;;;;5025719;28;20573;-71
2022/11/28 00:43:38;;;;;;;8.20;7.30;;;7.00;99.90;;;;;;5028580;28;20206;-70
2022/11/28 00:46:04;;;;;;;9.05;8.15;;;6.90;99.90;;;;;;5030351;28;20206;-71
2022/11/28 00:48:34;;;;;;;8.88;7.53;;;7.10;99.90;;;;;;5030680;28;20186;-71
2022/11/28 00:51:19;;;;;;;8.70;7.80;;;7.30;99.90;;;;;;5030654;28;20289;-71
2022/11/28 00:53:47;;;;;;;8.40;7.60;;;7.20;99.90;;;;;;5028961;28;20213;-71
2022/11/28 00:56:15;;;;;;;8.57;7.68;;;7.20;99.90;;;;;;5035077;28;20186;-72
2022/11/28 00:58:42;;;;;;;8.25;7.45;;;7.30;99.90;;;;;;5032176;28;20182;-72
2022/11/28 01:01:32;;;;;;;8.40;7.60;;;7.40;99.90;;;;;;5023091;28;20256;-71
2022/11/28 01:04:01;;;;;;;8.35;7.55;;;7.20;99.90;;;;;;5019245;28;20289;-72
2022/11/28 01:06:36;;;;;;;8.90;7.88;;;7.40;99.90;;;;;;5032381;28;20280;-72
2022/11/28 01:09:06;;;;;;;7.68;6.97;;;7.50;99.90;;;;;;5026663;28;20182;-72
2022/11/28 01:11:32;;;;;;;7.55;6.85;;;7.50;99.90;;;;;;5035731;28;20707;-72
2022/11/28 01:13:59;;;;;;;7.72;6.93;;;7.10;99.90;;;;;;5038317;28;20656;-73
2022/11/28 01:16:26;;;;;;;9.20;8.30;;;7.10;99.90;;;;;;5031104;28;20273;-72
2022/11/28 01:18:52;;;;;;;9.00;8.05;;;7.20;99.90;;;;;;5028270;28;20182;-72
2022/11/28 01:21:19;;;;;;;9.55;8.60;;;6.80;99.90;;;;;;5049996;28;20233;-72
2022/11/28 01:23:44;;;;;;;8.95;8.15;;;6.80;99.90;;;;;;5025347;28;20213;-72
2022/11/28 01:26:16;;;;;;;9.00;7.27;;;6.90;99.90;;;;;;5030383;28;20178;-73
2022/11/28 01:28:42;;;;;;;9.45;8.50;;;6.60;99.90;;;;;;5042646;28;20182;-72
2022/11/28 01:31:10;;;;;;;9.43;8.10;;;6.60;99.90;;;;;;5028920;28;20240;-72
2022/11/28 01:33:36;;;;;;;9.38;8.15;;;6.70;99.90;;;;;;5030069;28;20211;-72
2022/11/28 01:36:02;;;;;;;10.00;8.50;;;6.80;99.90;;;;;;5030924;28;20233;-72
2022/11/28 01:38:28;;;;;;;9.43;8.52;;;6.90;99.90;;;;;;5023021;28;20228;-72
2022/11/28 01:40:55;;;;;;;8.90;8.00;;;7.10;99.90;;;;;;5027612;28;20605;-73
2022/11/28 01:43:22;;;;;;;9.20;8.25;;;7.10;99.90;;;;;;5030214;28;20439;-72
2022/11/28 01:45:47;;;;;;;8.90;8.00;;;6.80;99.90;;;;;;5027195;28;20190;-73
2022/11/28 01:48:18;;;;;;;9.60;8.60;;;7.10;99.90;;;;;;5039812;28;20182;-71
2022/11/28 01:50:46;;;;;;;10.20;9.10;;;7.10;99.90;;;;;;5043993;28;20228;-71
2022/11/28 01:53:12;;;;;;;8.82;7.45;;;6.90;99.90;;;;;;5039773;28;20241;-70
2022/11/28 01:55:48;;;;;;;8.68;7.88;;;7.00;99.90;;;;;;5027274;28;20214;-70
2022/11/28 01:58:15;;;;;;;8.63;7.70;;;6.90;99.90;;;;;;5019761;28;20206;-71
2022/11/28 02:00:40;;;;;;;9.05;8.15;;;6.80;99.90;;;;;;5025195;28;20207;-71
2022/11/28 02:03:16;;;;;;;10.03;8.00;;;6.70;99.90;;;;;;5049690;28;20232;-71
2022/11/28 02:05:42;;;;;;;8.70;7.80;;;6.70;99.90;;;;;;5022679;28;20186;-71
2022/11/28 02:08:08;;;;;;;9.00;8.10;;;6.10;99.90;;;;;;5026371;28;20570;-71
2022/11/28 02:11:00;;;;;;;7.93;7.20;;;6.70;99.90;;;;;;5038140;28;20190;-71
2022/11/28 02:13:55;;;;;;;9.27;7.70;;;6.70;99.90;;;;;;5032463;28;20313;-71
2022/11/28 02:16:45;;;;;;;8.70;7.82;;;7.00;99.90;;;;;;5024530;28;20678;-74
2022/11/28 02:19:13;;;;;;;8.30;7.60;;;6.90;99.90;;;;;;5028852;28;20240;-73
2022/11/28 02:21:51;;;;;;;8.90;8.00;;;7.00;99.90;;;;;;5032984;28;20217;-73
2022/11/28 02:24:20;;;;;;;7.50;6.80;;;6.80;99.90;;;;;;5047400;28;20272;-72
2022/11/28 02:26:45;;;;;;;8.90;8.00;;;6.60;99.90;;;;;;5033342;28;20189;-71
2022/11/28 02:29:50;;;;;;;8.70;7.63;;;6.60;99.90;;;;;;5045757;28;20187;-70
2022/11/28 02:32:35;;;;;;;10.18;8.50;;;6.80;99.90;;;;;;5027202;28;20186;-70
2022/11/28 02:35:10;;;;;;;8.77;7.88;;;6.70;99.90;;;;;;5032776;28;20210;-70
2022/11/28 02:37:45;;;;;;;9.13;7.93;;;6.90;99.90;;;;;;5033140;28;20200;-71
2022/11/28 02:40:16;;;;;;;9.20;8.30;;;6.80;99.90;;;;;;5031103;28;20237;-70
2022/11/28 02:43:15;;;;;;;9.45;8.45;;;6.90;99.90;;;;;;5027205;28;20256;-71
2022/11/28 02:45:56;;;;;;;8.63;7.75;;;7.30;99.90;;;;;;5035938;28;20666;-70
2022/11/28 02:48:42;;;;;;;9.45;8.45;;;7.10;99.90;;;;;;5033163;28;20193;-70
2022/11/28 02:51:27;;;;;;;9.00;8.10;;;7.10;99.90;;;;;;5032757;28;20193;-70
2022/11/28 02:53:54;;;;;;;8.23;7.38;;;7.10;99.90;;;;;;5031793;28;20214;-71
2022/11/28 02:56:23;;;;;;;7.70;6.93;;;7.10;99.90;;;;;;5022839;28;20199;-70
2022/11/28 02:58:48;;;;;;;8.00;7.13;;;7.00;99.90;;;;;;5029854;28;20187;-71
2022/11/28 03:01:29;;;;;;;12.07;8.67;;;7.00;99.90;;;;;;5032558;28;20354;-70
2022/11/28 03:04:10;;;;;;;10.13;8.25;;;7.10;99.90;;;;;;5031016;28;20202;-70
2022/11/28 03:07:27;;;;;;;9.10;8.20;;;7.10;99.90;;;;;;5028009;28;20269;-70
2022/11/28 03:10:16;;;;;;;8.85;7.95;;;7.10;99.90;;;;;;5020787;28;20209;-70
2022/11/28 03:13:03;;;;;;;9.93;7.63;;;7.30;99.90;;;;;;5030687;28;20187;-70
2022/11/28 03:15:48;;;;;;;8.10;7.30;;;7.20;99.90;;;;;;5046942;28;20194;-70
2022/11/28 03:18:41;;;;;;;7.85;7.10;;;7.20;99.90;;;;;;5024956;28;20315;-71
2022/11/28 03:21:36;;;;;;;8.35;7.55;;;7.10;99.90;;;;;;5025160;28;20211;-71
2022/11/28 03:24:19;;;;;;;8.32;7.40;;;7.30;99.90;;;;;;5024711;28;20218;-70
2022/11/28 03:26:50;;;;;;;8.32;7.57;;;7.30;99.90;;;;;;5030117;28;20256;-71
2022/11/28 03:29:24;;;;;;;7.75;6.68;;;7.20;99.90;;;;;;5032027;28;20186;-70
2022/11/28 03:31:57;;;;;;;7.93;7.10;;;7.10;99.90;;;;;;5032042;28;20186;-70
2022/11/28 03:34:30;;;;;;;8.18;7.10;;;7.10;99.90;;;;;;5043457;28;20210;-70
2022/11/28 03:37:00;;;;;;;7.80;7.00;;;7.10;99.90;;;;;;5036289;28;20219;-71
2022/11/28 03:39:34;;;;;;;10.07;7.35;;;7.20;99.90;;;;;;5029632;28;20174;-71
2022/11/28 03:42:09;;;;;;;8.75;7.00;;;7.30;99.90;;;;;;5030464;28;20268;-70
2022/11/28 03:45:00;;;;;;;8.32;7.03;;;7.10;99.90;;;;;;5039003;28;20269;-70
2022/11/28 03:47:30;;;;;;;8.27;7.47;;;7.30;99.90;;;;;;5027435;28;20182;-70
2022/11/28 03:50:00;;;;;;;8.25;7.30;;;7.10;99.90;;;;;;5033716;28;20174;-70
2022/11/28 03:52:31;;;;;;;8.20;7.28;;;7.40;99.90;;;;;;5032419;28;20194;-70
2022/11/28 03:55:05;;;;;;;9.02;7.25;;;7.30;99.90;;;;;;5029693;28;20206;-70
2022/11/28 03:57:47;;;;;;;8.65;6.97;;;7.00;99.90;;;;;;5027367;28;20194;-70
2022/11/28 04:00:14;;;;;;;8.85;7.15;;;7.30;99.90;;;;;;5036387;28;20239;-70
2022/11/28 04:02:58;;;;;;;7.55;6.75;;;7.20;99.90;;;;;;5032091;28;20271;-70
2022/11/28 04:05:23;;;;;;;8.15;7.32;;;7.10;99.90;;;;;;5032016;28;20557;-70
2022/11/28 04:07:57;;;;;;;9.63;8.63;;;7.20;99.90;;;;;;5031329;28;20190;-70
2022/11/28 04:10:40;;;;;;;9.35;6.82;;;7.10;99.90;;;;;;5032307;28;20265;-70
2022/11/28 04:13:27;;;;;;;9.75;6.85;;;7.10;99.90;;;;;;5029391;28;20677;-70
2022/11/28 04:16:38;;;;;;;8.98;7.72;;;7.10;99.90;;;;;;5031480;28;20189;-70
2022/11/28 04:19:10;;;;;;;8.60;7.07;;;7.10;99.90;;;;;;4995193;28;20221;-70
2022/11/28 04:21:57;;;;;;;7.95;7.22;;;7.20;99.90;;;;;;5023495;28;20214;-70
2022/11/28 04:24:35;;;;;;;8.48;7.68;;;7.30;99.90;;;;;;5026849;28;20704;-70
2022/11/28 04:27:05;;;;;;;8.75;7.85;;;7.10;99.90;;;;;;5031538;28;20238;-70
2022/11/28 04:29:36;;;;;;;9.32;7.63;;;7.30;99.90;;;;;;5048561;28;20182;-70
2022/11/28 04:32:04;;;;;;;8.80;7.90;;;7.30;99.90;;;;;;5030285;28;20186;-70
2022/11/28 04:34:33;;;;;;;8.65;7.75;;;7.40;99.90;;;;;;5023639;28;20205;-70
2022/11/28 04:37:00;;;;;;;9.40;7.03;;;7.40;99.90;;;;;;5036170;28;20186;-70
2022/11/28 04:39:27;;;;;;;8.45;7.40;;;7.50;99.90;;;;;;5032232;28;20183;-70
2022/11/28 04:41:59;;;;;;;8.60;7.53;;;7.20;99.90;;;;;;5028097;28;20210;-70
2022/11/28 04:44:32;;;;;;;8.23;7.05;;;7.00;99.90;;;;;;5027103;28;20195;-70
2022/11/28 04:46:58;;;;;;;8.10;7.30;;;7.10;99.90;;;;;;5028893;28;20186;-70
2022/11/28 04:49:26;;;;;;;8.30;7.45;;;7.00;99.90;;;;;;5031306;28;20643;-70
2022/11/28 04:52:00;;;;;;;8.40;7.60;;;7.20;99.90;;;;;;5026952;28;20182;-70
2022/11/28 04:54:31;;;;;;;11.05;6.97;;;7.20;99.90;;;;;;5031247;28;20663;-70
2022/11/28 04:57:09;;;;;;;8.18;7.38;;;7.40;99.90;;;;;;5044641;28;20280;-70
2022/11/28 04:59:34;;;;;;;9.93;6.63;;;7.20;99.90;;;;;;5026066;28;20186;-70
2022/11/28 05:02:04;;;;;;;8.00;6.70;;;7.20;99.90;;;;;;5033314;28;20221;-70
2022/11/28 05:04:33;;;;;;;7.97;7.18;;;7.40;99.90;;;;;;5044015;28;20253;-70
2022/11/28 05:07:07;;;;;;;7.40;6.47;;;7.10;99.90;;;;;;5026095;28;20175;-70
2022/11/28 05:09:33;;;;;;;7.93;6.70;;;7.10;99.90;;;;;;5023313;28;20518;-72
2022/11/28 05:11:58;;;;;;;6.85;6.20;;;6.90;99.90;;;;;;5033730;28;20319;-72
2022/11/28 05:14:24;;;;;;;9.47;6.87;;;7.10;99.90;;;;;;5032647;28;20297;-72
2022/11/28 05:16:50;;;;;;;8.00;7.20;;;7.30;99.90;;;;;;5031845;28;20186;-72
2022/11/28 05:19:15;;;;;;;7.63;6.83;;;6.90;99.90;;;;;;5046734;28;20630;-70
2022/11/28 05:21:41;;;;;;;12.17;6.87;;;7.10;99.90;;;;;;5041922;28;20217;-70
2022/11/28 05:24:08;;;;;;;10.67;7.70;;;7.20;99.90;;;;;;5029369;28;20202;-70
2022/11/28 05:26:34;;;;;;;7.38;6.68;;;7.00;99.90;;;;;;5026675;28;20783;-70
2022/11/28 05:29:00;;;;;;;14.43;7.38;;;7.10;99.90;;;;;;5030024;28;20496;-70
2022/11/28 05:31:27;;;;;;;8.27;6.53;;;7.00;99.90;;;;;;5030811;28;20189;-70
2022/11/28 05:33:56;;;;;;;7.45;5.65;;;7.10;99.90;;;;;;5036636;28;20210;-70
2022/11/28 05:36:22;;;;;;;7.60;6.15;;;7.00;99.90;;;;;;5041029;28;20228;-70
2022/11/28 05:38:49;;;;;;;6.13;5.53;;;7.10;99.90;;;;;;5027254;28;20276;-72
2022/11/28 05:41:19;;;;;;;5.97;5.40;;;7.10;99.90;;;;;;5026189;28;20431;-72
2022/11/28 05:43:44;;;;;;;6.68;5.97;;;7.30;99.90;;;;;;5025771;28;20267;-71
2022/11/28 05:46:10;;;;;;;6.60;5.93;;;7.50;99.90;;;;;;5025377;28;22007;-73
2022/11/28 05:48:35;;;;;;;5.83;5.03;;;7.30;99.90;;;;;;5027600;28;20186;-75
2022/11/28 05:51:04;;;;;;;6.30;5.70;;;7.50;99.90;;;;;;5025921;28;20198;-74
2022/11/28 05:53:29;;;;;;;9.50;6.22;;;7.60;99.90;;;;;;5026045;28;20225;-73
2022/11/28 05:55:55;;;;;;;6.90;5.40;;;7.60;99.90;;;;;;5029113;28;20277;-73
2022/11/28 05:58:21;;;;;;;7.10;5.70;;;7.90;99.90;;;;;;5026647;28;20313;-73
2022/11/28 06:00:47;;;;;;;8.63;6.43;;;7.90;99.90;;;;;;5042974;28;20210;-73
2022/11/28 06:03:13;;;;;;;7.10;6.03;;;7.80;99.90;;;;;;5028531;28;20506;-73
2022/11/28 06:05:41;;;;;;;7.20;6.50;;;7.80;99.90;;;;;;5027619;28;20436;-73
2022/11/28 06:08:07;;;;;;;6.05;5.45;;;7.60;99.90;;;;;;5028466;28;20274;-73
2022/11/28 06:10:33;;;;;;;6.50;5.90;;;7.90;99.90;;;;;;5021796;28;20278;-73
2022/11/28 06:13:01;;;;;;;6.38;5.70;;;7.60;99.90;;;;;;5031827;28;20453;-73
2022/11/28 06:15:28;;;;;;;6.75;5.22;;;8.10;99.90;;;;;;5046266;28;20273;-73
2022/11/28 06:17:54;;;;;;;6.32;5.75;;;7.90;99.90;;;;;;5028455;28;20209;-73
2022/11/28 06:20:20;;;;;;;6.25;5.75;;;7.90;99.90;;;;;;5025611;28;20194;-73
2022/11/28 06:22:46;;;;;;;7.03;6.00;;;7.80;99.90;;;;;;5026715;28;20289;-73
2022/11/28 06:25:12;;;;;;;6.78;5.50;;;8.30;99.90;;;;;;5029674;28;20192;-72
2022/11/28 06:27:37;;;;;;;6.07;5.47;;;8.00;99.90;;;;;;5029325;28;20261;-74
2022/11/28 06:30:04;;;;;;;6.80;6.10;;;8.10;99.90;;;;;;5030272;28;20179;-73
2022/11/28 06:32:30;;;;;;;7.30;5.45;;;8.00;99.90;;;;;;5033277;28;20201;-72
2022/11/28 06:34:56;;;;;;;8.60;7.30;;;8.10;99.90;;;;;;5036078;28;20593;-69
2022/11/28 06:37:21;;;;;;;6.53;5.13;;;8.10;99.90;;;;;;5028130;28;20191;-68
2022/11/28 06:39:48;;;;;;;7.00;5.47;;;8.00;99.90;;;;;;5026126;28;20217;-69
2022/11/28 06:42:14;;;;;;;6.53;5.60;;;7.80;99.90;;;;;;5029965;28;20214;-69
2022/11/28 06:44:40;;;;;;;7.07;5.60;;;7.90;99.90;;;;;;5024370;28;20304;-70
2022/11/28 06:47:06;;;;;;;6.27;5.63;;;8.00;99.90;;;;;;5027469;28;20585;-69
2022/11/28 06:49:31;;;;;;;5.67;4.83;;;8.10;99.90;;;;;;5026955;28;20655;-69
2022/11/28 06:51:57;;;;;;;5.90;5.30;;;8.20;99.90;;;;;;5026062;28;20182;-61
2022/11/28 06:54:23;;;;;;;7.30;5.67;;;8.10;99.90;;;;;;5027436;28;20213;-60
2022/11/28 06:56:48;;;;;;;7.37;6.40;;;7.90;99.90;;;;;;5023283;28;20269;-74
2022/11/28 06:59:14;;;;;;;6.70;6.00;;;7.80;99.90;;;;;;5026343;28;20212;-69
2022/11/28 07:01:39;;;;;;;8.33;7.13;;;8.20;99.90;;;;;;5024134;28;20203;-71
2022/11/28 07:04:05;;;;;;;5.80;5.30;;;7.90;99.90;;;;;;5026523;28;20758;-72
2022/11/28 07:06:31;;;;;;;6.20;5.60;;;8.20;99.90;;;;;;5042724;28;20171;-71
2022/11/28 07:08:57;;;;;;;7.53;6.00;;;8.00;99.90;;;;;;5023683;28;20269;-70
2022/11/28 07:11:26;;;;;;;10.18;5.65;;;7.80;99.90;;;;;;5037730;28;20190;-69
2022/11/28 07:13:52;;;;;;;7.15;6.20;;;7.70;99.90;;;;;;5035310;28;20293;-69
2022/11/28 07:16:23;;;;;;;7.45;6.40;;;8.00;99.90;;;;;;5034878;28;20597;-69
2022/11/28 07:18:50;;;;;;;6.88;6.22;;;7.90;99.90;;;;;;5031428;28;20178;-70
2022/11/28 07:21:16;;;;;;;7.93;6.25;;;7.80;99.90;;;;;;5031152;28;20221;-69
2022/11/28 07:23:43;;;;;;;7.88;7.07;;;8.00;99.90;;;;;;5029429;28;20201;-71
2022/11/28 07:26:11;;;;;;;8.00;6.35;;;7.90;99.90;;;;;;5031714;28;20186;-70
2022/11/28 07:28:37;;;;;;;6.63;5.53;;;8.10;99.90;;;;;;5033308;28;20174;-74
2022/11/28 07:31:06;;;;;;;8.10;5.90;;;7.80;99.90;;;;;;5027176;28;20673;-73
2022/11/28 07:33:34;;;;;;;7.78;7.07;;;7.80;99.90;;;;;;5026988;28;20202;-71
2022/11/28 07:36:01;;;;;;;8.35;6.45;;;7.90;99.90;;;;;;5029139;28;20209;-72
2022/11/28 07:38:27;;;;;;;16.05;7.15;;;7.70;99.90;;;;;;5032719;28;20194;-73
2022/11/28 07:40:52;;;;;;;6.20;5.53;;;7.60;99.90;;;;;;5036268;28;20198;-71
2022/11/28 07:43:18;;;;;;;7.37;5.50;;;7.50;99.90;;;;;;5032950;28;20206;-74
2022/11/28 07:45:44;;;;;;;5.50;5.00;;;7.70;99.90;;;;;;5031684;28;20189;-75
2022/11/28 07:48:10;;;;;;;6.80;5.40;;;7.70;99.90;;;;;;5047375;28;20585;-72
2022/11/28 07:50:39;;;;;;;5.20;4.70;;;7.80;99.90;;;;;;5033760;28;20183;-65
2022/11/28 07:53:04;;;;;;;5.80;5.28;;;8.00;99.90;;;;;;5029146;28;20612;-67
2022/11/28 07:55:30;;;;;;;6.40;5.73;;;7.70;99.90;;;;;;5035031;28;20190;-66
2022/11/28 07:57:56;;;;;;;7.50;6.80;;;8.10;99.90;;;;;;5033141;28;20458;-79
2022/11/28 08:00:22;;;;;;;6.83;6.10;;;7.80;99.90;;;;;;5028833;28;20194;-76
2022/11/28 08:02:47;;;;;;;7.43;6.03;;;7.90;99.90;;;;;;5031752;28;20349;-75
2022/11/28 08:05:13;;;;;;;9.93;8.93;;;7.80;99.90;;;;;;5028508;28;20300;-75
2022/11/28 08:07:38;;;;;;;10.30;8.77;;;7.80;99.90;;;;;;5030172;28;20186;-76
2022/11/28 08:10:07;;;;;;;10.67;6.50;;;7.90;99.90;;;;;;5027227;28;20197;-74
2022/11/28 08:12:33;;;;;;;7.50;6.50;;;7.80;99.90;;;;;;5029111;28;20229;-78
2022/11/28 08:14:59;;;;;;;7.23;5.47;;;8.00;99.90;;;;;;5029901;28;20206;-70
2022/11/28 08:17:24;;;;;;;12.80;5.93;;;7.80;99.90;;;;;;5022795;28;20217;-69
2022/11/28 08:19:50;;;;;;;8.33;5.93;;;7.90;99.90;;;;;;5027801;28;20191;-69
2022/11/28 08:22:16;;;;;;;7.30;5.53;;;8.30;99.90;;;;;;5028785;28;20228;-72
2022/11/28 08:24:41;;;;;;;6.73;6.07;;;8.40;99.90;;;;;;5030192;28;20670;-71
2022/11/28 08:27:07;;;;;;;10.60;7.47;;;8.50;99.90;;;;;;5040164;28;20186;-71
2022/11/28 08:29:33;;;;;;;6.82;5.65;;;8.30;99.90;;;;;;5028850;28;20182;-73
2022/11/28 08:31:59;;;;;;;7.13;6.10;;;8.40;99.90;;;;;;5036835;28;20186;-80
2022/11/28 08:34:25;;;;;;;7.37;5.67;;;7.70;99.90;;;;;;5029884;28;20542;-77
2022/11/28 08:36:50;;;;;;;12.93;6.93;;;8.80;99.90;;;;;;5040910;28;20455;-74
2022/11/28 08:39:16;;;;;;;17.30;13.73;;;8.70;99.90;;;;;;5031172;28;20190;-76
2022/11/28 08:41:42;;;;;;;6.20;5.37;;;8.70;99.90;;;;;;5030337;28;20662;-77
2022/11/28 08:44:07;;;;;;;6.30;4.90;;;8.80;99.90;;;;;;5032819;28;20206;-79
2022/11/28 08:46:33;;;;;;;7.40;4.97;;;8.90;99.90;;;;;;5027013;28;20269;-82
2022/11/28 08:49:00;;;;;;;5.37;4.87;;;9.10;99.90;;;;;;5028390;28;20880;-69
2022/11/28 08:51:28;;;;;;;5.20;4.70;;;8.80;99.90;;;;;;5028215;28;20616;-72
2022/11/28 08:53:55;;;;;;;9.73;5.18;;;9.00;99.90;;;;;;5030651;28;20206;-70
2022/11/28 08:56:21;;;;;;;5.95;4.35;;;9.10;99.90;;;;;;5025769;28;20187;-72
2022/11/28 08:58:46;;;;;;;5.20;4.50;;;9.10;99.90;;;;;;5028997;28;20213;-71
2022/11/28 09:01:18;;;;;;;6.47;5.00;;;9.40;99.90;;;;;;5032589;28;20214;-69
2022/11/28 09:03:44;;;;;;;5.63;5.03;;;9.60;99.90;;;;;;5029174;28;20198;-70
2022/11/28 09:06:10;;;;;;;5.93;4.25;;;9.40;99.90;;;;;;5042779;28;20198;-67
2022/11/28 09:08:36;;;;;;;5.53;4.60;;;9.50;99.90;;;;;;5042288;28;20269;-68
2022/11/28 09:11:02;;;;;;;7.60;4.63;;;9.60;99.90;;;;;;5043002;28;21015;-68
2022/11/28 09:13:27;;;;;;;10.60;4.80;;;9.80;99.90;;;;;;5049797;28;20213;-67
2022/11/28 09:15:54;;;;;;;9.87;8.80;;;9.70;99.90;;;;;;5037955;28;20218;-67
2022/11/28 09:18:20;;;;;;;9.45;7.10;;;9.80;99.90;;;;;;5042628;28;20244;-66
2022/11/28 09:20:45;;;;;;;10.90;9.80;;;9.60;99.90;;;;;;5037872;28;20215;-67
2022/11/28 09:23:11;;;;;;;9.30;6.40;;;9.80;99.90;;;;;;5028685;28;20866;-67
2022/11/28 09:25:38;;;;;;;6.50;5.80;;;9.70;99.40;;;;;;5038582;28;20196;-67
2022/11/28 09:28:04;;;;;;;10.85;7.63;;;9.40;99.60;;;;;;5031961;28;20190;-67
2022/11/28 09:30:30;;;;;;;9.80;7.05;;;;;;;;;;5035082;28;20205;-64
2022/11/28 09:32:56;;;;;;;8.77;7.60;;;9.50;99.20;;;;;;5038691;28;20204;-75
2022/11/28 09:35:22;;;;;;;11.60;7.83;;;9.60;99.60;;;;;;5021693;28;20266;-74
2022/11/28 09:37:47;;;;;;;8.63;7.40;;;9.50;99.80;;;;;;5029508;28;20650;-68
2022/11/28 09:40:22;;;;;;;9.43;7.30;;;9.60;99.90;;;;;;5034574;28;20681;-71
2022/11/28 09:42:48;;;;;;;8.07;7.28;;;9.50;99.90;;;;;;5028770;28;20617;-71
2022/11/28 09:45:20;;;;;;;11.07;7.60;;;9.70;99.90;;;;;;5046052;28;20751;-74
2022/11/28 09:47:52;;;;;;;10.50;8.38;;;9.90;99.90;;;;;;5030668;28;20596;-78
2022/11/28 09:50:24;;;;;;;11.85;8.10;;;9.80;99.60;;;;;;5031949;28;20265;-79
2022/11/28 09:53:11;;;;;;;8.63;7.63;;;9.80;99.10;;;;;;5053557;28;20262;-80
2022/11/28 09:55:49;;;;;;;9.15;7.50;;;9.60;99.30;;;;;;5030441;28;20188;-77
2022/11/28 09:58:25;;;;;;;13.30;7.78;;;9.70;99.30;;;;;;5028520;28;20186;-65
2022/11/28 10:01:01;;;;;;;9.50;7.80;;;9.80;99.30;;;;;;5033662;28;20296;-77
2022/11/28 10:03:38;;;;;;;12.48;8.88;;;9.70;99.90;;;;;;5028062;28;20209;-74
2022/11/28 10:06:03;;;;;;;10.25;8.05;;;9.60;99.90;;;;;;5026867;28;20186;-75
2022/11/28 10:08:32;;;;;;;10.60;8.93;;;9.60;99.90;;;;;;5028679;28;20635;-74
2022/11/28 10:11:03;;;;;;;11.00;7.57;;;9.60;99.90;;;;;;5046954;28;20214;-75
2022/11/28 10:13:34;;;;;;;11.88;7.68;;;9.60;99.90;;;;;;5048335;28;20289;-73
2022/11/28 10:16:00;;;;;;;9.50;8.45;;;9.80;99.90;;;;;;5031359;28;20191;-72
2022/11/28 10:18:47;;;;;;;9.40;8.23;;;10.00;99.40;;;;;;5029454;28;20662;-70
2022/11/28 10:21:48;;;;;;;9.45;8.43;;;10.10;99.40;;;;;;5029080;28;20217;-70
2022/11/28 10:24:18;;;;;;;6.28;5.68;;;10.00;98.90;;;;;;5021331;28;20208;-73
2022/11/28 10:26:50;;;;;;;8.68;6.55;;;10.30;98.50;;;;;;5027472;28;20265;-72
2022/11/28 10:29:28;;;;;;;5.80;5.25;;;10.20;98.50;;;;;;5031824;28;20210;-72
2022/11/28 10:31:58;;;;;;;6.63;5.25;;;10.10;97.90;;;;;;5026996;28;20193;-72
2022/11/28 10:34:50;;;;;;;6.03;5.35;;;10.20;97.80;;;;;;5027327;28;20202;-72
2022/11/28 10:37:27;;;;;;;7.28;5.63;;;10.20;98.20;;;;;;5025508;28;20599;-74
2022/11/28 10:39:54;;;;;;;9.48;6.97;;;10.20;98.20;;;;;;5030182;28;20232;-73
2022/11/28 10:42:38;;;;;;;9.48;7.05;;;10.10;98.00;;;;;;5031858;28;20250;-72
2022/11/28 10:45:40;;;;;;;10.90;9.23;;;10.20;98.10;;;;;;5032653;28;20257;-73
2022/11/28 10:48:43;;;;;;;10.90;9.40;;;10.10;98.40;;;;;;5032001;28;20183;-73
2022/11/28 10:51:12;;;;;;;12.45;8.48;;;10.20;98.70;;;;;;5031043;28;20225;-73
2022/11/28 10:53:56;;;;;;;11.15;8.60;;;10.30;98.50;;;;;;5031435;28;20429;-73
2022/11/28 10:56:48;;;;;;;9.20;8.02;;;10.30;98.50;;;;;;5032099;28;20191;-73
2022/11/28 10:59:35;;;;;;;9.63;6.78;;;10.30;98.50;;;;;;5026353;28;20280;-74
2022/11/28 11:02:19;;;;;;;6.72;5.93;;;10.50;98.10;;;;;;5029458;28;20207;-71
2022/11/28 11:04:44;;;;;;;11.48;7.40;;;10.70;98.30;;;;;;5031625;28;20205;-70
2022/11/28 11:07:23;;;;;;;9.63;7.83;;;10.60;98.30;;;;;;5031467;28;20345;-69
2022/11/28 11:09:48;;;;;;;16.13;9.10;;;10.70;98.40;;;;;;5030935;28;20763;-69
2022/11/28 11:12:25;;;;;;;12.70;8.30;;;10.60;98.30;;;;;;5031716;28;20692;-69
2022/11/28 11:14:50;;;;;;;15.43;8.70;;;10.90;98.10;;;;;;5051010;28;20249;-70
2022/11/28 11:17:36;;;;;;;11.80;8.10;;;10.80;97.90;;;;;;5032481;28;20282;-70
2022/11/28 11:20:23;;;;;;;9.98;8.98;;;10.80;97.80;;;;;;5031208;28;20197;-70
2022/11/28 11:23:00;;;;;;;10.68;8.90;;;10.90;98.00;;;;;;5030209;28;20281;-70
2022/11/28 11:25:30;;;;;;;10.25;8.43;;;10.80;98.10;;;;;;5020468;28;20181;-69
2022/11/28 11:28:02;;;;;;;8.48;7.50;;;10.70;99.50;;;;;;5032501;28;20637;-69
2022/11/28 11:30:37;;;;;;;12.80;8.70;;;10.70;99.90;;;;;;5032457;28;20228;-70
2022/11/28 11:33:05;;;;;;;9.90;8.85;;;10.80;99.90;;;;;;5033828;28;20611;-70
2022/11/28 11:35:35;;;;;;;14.43;11.35;;;10.90;99.90;;;;;;5030708;28;20212;-70
2022/11/28 11:38:19;;;;;;;9.82;8.93;;;10.90;99.90;;;;;;5031590;28;20228;-70
2022/11/28 11:40:46;;;;;;;11.45;8.98;;;10.80;99.80;;;;;;5031587;28;20209;-70
2022/11/28 11:43:31;;;;;;;9.73;8.75;;;10.90;99.90;;;;;;5031317;28;20272;-70
2022/11/28 11:46:14;;;;;;;11.80;9.25;;;10.90;99.90;;;;;;5030926;28;20191;-70
2022/11/28 11:48:44;;;;;;;10.63;9.45;;;10.90;99.90;;;;;;5027047;28;20194;-71
2022/11/28 11:51:24;;;;;;;11.68;9.93;;;10.50;99.90;;;;;;5032838;28;20184;-70
2022/11/28 11:54:19;;;;;;;10.77;9.10;;;10.50;99.90;;;;;;5026021;28;20295;-73
2022/11/28 11:56:47;;;;;;;19.20;10.57;;;10.50;99.90;;;;;;5022838;28;20191;-71
2022/11/28 11:59:17;;;;;;;13.80;9.75;;;10.50;99.90;;;;;;5031589;28;20191;-75
2022/11/28 12:01:45;;;;;;;8.90;7.43;;;10.60;99.90;;;;;;5028836;28;20645;-76
2022/11/28 12:04:30;;;;;;;6.97;6.30;;;10.60;99.90;;;;;;5028884;28;20675;-72
2022/11/28 12:06:59;;;;;;;9.25;7.03;;;10.40;99.90;;;;;;5034051;28;20661;-73
2022/11/28 12:09:33;;;;;;;13.48;7.93;;;10.50;99.90;;;;;;5025912;28;20257;-73
2022/11/28 12:12:22;;;;;;;13.55;7.35;;;10.60;99.90;;;;;;5022722;28;20192;-74
2022/11/28 12:14:49;;;;;;;7.30;6.60;;;10.50;99.90;;;;;;5023510;28;20214;-74
2022/11/28 12:17:49;;;;;;;11.82;6.80;;;10.60;99.90;;;;;;5030519;28;20180;-66
2022/11/28 12:20:25;;;;;;;7.18;6.38;;;10.80;99.90;;;;;;5029274;28;20284;-67
2022/11/28 12:23:00;;;;;;;8.27;7.57;;;10.70;99.90;;;;;;5035661;28;20193;-72
2022/11/28 12:25:49;;;;;;;7.55;6.85;;;10.80;99.90;;;;;;5039887;28;20320;-71
2022/11/28 12:28:14;;;;;;;10.05;7.43;;;10.70;99.90;;;;;;5024980;28;20187;-72
2022/11/28 12:31:04;;;;;;;12.27;8.33;;;10.70;99.90;;;;;;5028422;28;20194;-68
2022/11/28 12:33:29;;;;;;;9.18;8.07;;;10.70;99.90;;;;;;5022743;28;20693;-71
2022/11/28 12:36:22;;;;;;;9.30;8.30;;;10.90;99.90;;;;;;5027558;28;20183;-66
2022/11/28 12:38:58;;;;;;;9.68;8.55;;;10.70;99.90;;;;;;5027037;28;20237;-67
2022/11/28 12:41:58;;;;;;;9.45;8.40;;;10.80;99.90;;;;;;5026150;28;20624;-66
2022/11/28 12:44:29;;;;;;;11.52;8.32;;;10.80;99.90;;;;;;5024655;28;20204;-68
2022/11/28 12:47:09;;;;;;;14.32;7.80;;;10.90;99.90;;;;;;5029455;28;20278;-68
2022/11/28 12:49:54;;;;;;;10.15;7.72;;;10.90;99.90;;;;;;5028564;28;20194;-64
2022/11/28 12:52:25;;;;;;;10.15;7.30;;;10.80;99.90;;;;;;5023335;28;20191;-68
2022/11/28 12:55:14;;;;;;;12.35;7.82;;;10.70;99.90;;;;;;5029813;28;20210;-80
2022/11/28 12:57:48;;;;;;;12.82;7.75;;;11.00;99.90;;;;;;5047601;28;20187;-74
2022/11/28 13:00:19;;;;;;;10.80;8.60;;;10.70;99.90;;;;;;5046864;28;20655;-74
2022/11/28 13:03:15;;;;;;;8.18;7.30;;;10.70;99.90;;;;;;5030208;28;20215;-75
2022/11/28 13:05:40;;;;;;;7.80;6.30;;;11.10;99.90;;;;;;5045750;28;20186;-74
2022/11/28 13:08:33;;;;;;;7.13;5.80;;;11.20;99.90;;;;;;5026821;28;20183;-74
2022/11/28 13:11:23;;;;;;;6.00;5.50;;;11.20;99.90;;;;;;5026798;28;20248;-68
2022/11/28 13:13:57;;;;;;;7.30;6.65;;;11.50;99.90;;;;;;5029419;28;20618;-68
2022/11/28 13:16:43;;;;;;;7.97;6.28;;;11.30;99.90;;;;;;5036706;28;20604;-72
2022/11/28 13:19:27;;;;;;;7.40;5.85;;;11.40;99.90;;;;;;5027536;28;20190;-74